sensor_id;sensor_type;location;lat;lon;timestamp;P1;durP1;ratioP1;P2;durP2;ratioP2
53389;SDS011;39288;42.970;1.524;2024-01-30T00:00:58;19.07;;;11.30;;
53389;SDS011;39288;42.970;1.524;2024-01-30T00:01:58;26.17;;;12.10;;
53389;SDS011;39288;42.970;1.524;2024-01-30T00:02:59;15.10;;;9.83;;
53389;SDS011;39288;42.970;1.524;2024-01-30T00:03:59;18.67;;;10.90;;
53389;SDS011;39288;42.970;1.524;2024-01-30T00:05:00;18.33;;;11.07;;
53389;SDS011;39288;42.970;1.524;2024-01-30T00:06:00;19.47;;;11.40;;
53389;SDS011;39288;42.970;1.524;2024-01-30T00:07:00;16.47;;;11.80;;
53389;SDS011;39288;42.970;1.524;2024-01-30T00:08:01;21.47;;;13.17;;
53389;SDS011;39288;42.970;1.524;2024-01-30T00:09:01;27.53;;;14.40;;
53389;SDS011;39288;42.970;1.524;2024-01-30T00:10:01;23.73;;;13.90;;
53389;SDS011;39288;42.970;1.524;2024-01-30T00:11:02;18.57;;;11.53;;
53389;SDS011;39288;42.970;1.524;2024-01-30T00:12:03;21.83;;;11.87;;
53389;SDS011;39288;42.970;1.524;2024-01-30T00:13:03;21.30;;;12.30;;
53389;SDS011;39288;42.970;1.524;2024-01-30T00:14:04;18.57;;;11.83;;
53389;SDS011;39288;42.970;1.524;2024-01-30T00:15:04;22.23;;;12.77;;
53389;SDS011;39288;42.970;1.524;2024-01-30T00:16:08;16.92;;;11.57;;
53389;SDS011;39288;42.970;1.524;2024-01-30T00:17:09;16.00;;;11.85;;
53389;SDS011;39288;42.970;1.524;2024-01-30T00:18:09;27.77;;;13.27;;
53389;SDS011;39288;42.970;1.524;2024-01-30T00:19:10;25.50;;;14.53;;
53389;SDS011;39288;42.970;1.524;2024-01-30T00:20:10;21.60;;;13.50;;
53389;SDS011;39288;42.970;1.524;2024-01-30T00:21:11;21.77;;;12.63;;
53389;SDS011;39288;42.970;1.524;2024-01-30T00:22:11;19.37;;;12.63;;
53389;SDS011;39288;42.970;1.524;2024-01-30T00:23:11;22.13;;;13.50;;
53389;SDS011;39288;42.970;1.524;2024-01-30T00:24:12;23.67;;;12.20;;
53389;SDS011;39288;42.970;1.524;2024-01-30T00:25:12;25.77;;;14.70;;
53389;SDS011;39288;42.970;1.524;2024-01-30T00:26:13;24.10;;;15.00;;
53389;SDS011;39288;42.970;1.524;2024-01-30T00:28:15;20.90;;;13.07;;
53389;SDS011;39288;42.970;1.524;2024-01-30T00:29:15;20.77;;;13.13;;
53389;SDS011;39288;42.970;1.524;2024-01-30T00:30:20;20.67;;;13.65;;
53389;SDS011;39288;42.970;1.524;2024-01-30T00:31:20;22.58;;;12.88;;
53389;SDS011;39288;42.970;1.524;2024-01-30T00:32:21;18.77;;;11.10;;
53389;SDS011;39288;42.970;1.524;2024-01-30T00:33:23;17.90;;;12.13;;
53389;SDS011;39288;42.970;1.524;2024-01-30T00:34:23;19.77;;;12.83;;
53389;SDS011;39288;42.970;1.524;2024-01-30T00:35:23;35.60;;;22.93;;
53389;SDS011;39288;42.970;1.524;2024-01-30T00:36:24;34.07;;;20.33;;
53389;SDS011;39288;42.970;1.524;2024-01-30T00:37:24;29.97;;;19.10;;
53389;SDS011;39288;42.970;1.524;2024-01-30T00:38:25;27.87;;;16.43;;
53389;SDS011;39288;42.970;1.524;2024-01-30T00:39:25;25.50;;;18.03;;
53389;SDS011;39288;42.970;1.524;2024-01-30T00:40:26;62.10;;;33.13;;
53389;SDS011;39288;42.970;1.524;2024-01-30T00:41:26;43.07;;;30.30;;
53389;SDS011;39288;42.970;1.524;2024-01-30T00:42:26;40.83;;;29.70;;
53389;SDS011;39288;42.970;1.524;2024-01-30T00:43:27;35.87;;;22.97;;
53389;SDS011;39288;42.970;1.524;2024-01-30T00:44:28;32.97;;;18.07;;
53389;SDS011;39288;42.970;1.524;2024-01-30T00:45:28;21.80;;;14.60;;
53389;SDS011;39288;42.970;1.524;2024-01-30T00:46:28;19.67;;;13.23;;
53389;SDS011;39288;42.970;1.524;2024-01-30T00:47:29;23.43;;;13.20;;
53389;SDS011;39288;42.970;1.524;2024-01-30T00:48:29;23.17;;;14.07;;
53389;SDS011;39288;42.970;1.524;2024-01-30T00:49:29;28.93;;;16.77;;
53389;SDS011;39288;42.970;1.524;2024-01-30T00:50:30;26.67;;;15.70;;
53389;SDS011;39288;42.970;1.524;2024-01-30T00:51:30;24.50;;;15.77;;
53389;SDS011;39288;42.970;1.524;2024-01-30T00:52:31;24.60;;;14.07;;
53389;SDS011;39288;42.970;1.524;2024-01-30T00:54:33;24.15;;;14.68;;
53389;SDS011;39288;42.970;1.524;2024-01-30T00:55:33;28.93;;;18.60;;
53389;SDS011;39288;42.970;1.524;2024-01-30T00:56:34;30.93;;;18.57;;
53389;SDS011;39288;42.970;1.524;2024-01-30T00:57:34;28.17;;;16.23;;
53389;SDS011;39288;42.970;1.524;2024-01-30T00:58:35;27.03;;;16.60;;
53389;SDS011;39288;42.970;1.524;2024-01-30T00:59:35;26.07;;;16.43;;
53389;SDS011;39288;42.970;1.524;2024-01-30T01:00:36;32.37;;;16.30;;
53389;SDS011;39288;42.970;1.524;2024-01-30T01:01:37;21.60;;;15.57;;
53389;SDS011;39288;42.970;1.524;2024-01-30T01:02:37;24.73;;;15.03;;
53389;SDS011;39288;42.970;1.524;2024-01-30T01:03:39;19.75;;;13.52;;
53389;SDS011;39288;42.970;1.524;2024-01-30T01:05:41;24.77;;;12.98;;
53389;SDS011;39288;42.970;1.524;2024-01-30T01:06:41;17.90;;;11.37;;
53389;SDS011;39288;42.970;1.524;2024-01-30T01:07:44;25.42;;;14.27;;
53389;SDS011;39288;42.970;1.524;2024-01-30T01:08:45;20.88;;;14.23;;
53389;SDS011;39288;42.970;1.524;2024-01-30T01:09:45;28.23;;;15.27;;
53389;SDS011;39288;42.970;1.524;2024-01-30T01:10:46;33.27;;;16.23;;
53389;SDS011;39288;42.970;1.524;2024-01-30T01:11:46;32.17;;;16.70;;
53389;SDS011;39288;42.970;1.524;2024-01-30T01:12:48;30.15;;;16.20;;
53389;SDS011;39288;42.970;1.524;2024-01-30T01:13:48;28.07;;;15.17;;
53389;SDS011;39288;42.970;1.524;2024-01-30T01:14:49;28.90;;;15.73;;
53389;SDS011;39288;42.970;1.524;2024-01-30T01:15:49;22.83;;;14.77;;
53389;SDS011;39288;42.970;1.524;2024-01-30T01:16:49;21.37;;;12.80;;
53389;SDS011;39288;42.970;1.524;2024-01-30T01:17:50;17.03;;;12.23;;
53389;SDS011;39288;42.970;1.524;2024-01-30T01:18:50;20.27;;;14.03;;
53389;SDS011;39288;42.970;1.524;2024-01-30T01:19:50;23.97;;;14.30;;
53389;SDS011;39288;42.970;1.524;2024-01-30T01:20:51;21.77;;;13.90;;
53389;SDS011;39288;42.970;1.524;2024-01-30T01:21:51;21.60;;;13.77;;
53389;SDS011;39288;42.970;1.524;2024-01-30T01:22:52;16.47;;;11.83;;
53389;SDS011;39288;42.970;1.524;2024-01-30T01:23:53;22.00;;;12.60;;
53389;SDS011;39288;42.970;1.524;2024-01-30T01:24:53;17.57;;;11.50;;
53389;SDS011;39288;42.970;1.524;2024-01-30T01:25:53;22.00;;;13.60;;
53389;SDS011;39288;42.970;1.524;2024-01-30T01:26:55;23.77;;;13.02;;
53389;SDS011;39288;42.970;1.524;2024-01-30T01:28:57;24.67;;;14.23;;
53389;SDS011;39288;42.970;1.524;2024-01-30T01:29:57;27.23;;;13.07;;
53389;SDS011;39288;42.970;1.524;2024-01-30T01:30:58;20.23;;;13.93;;
53389;SDS011;39288;42.970;1.524;2024-01-30T01:32:05;17.35;;;11.90;;
53389;SDS011;39288;42.970;1.524;2024-01-30T01:33:05;17.40;;;13.17;;
53389;SDS011;39288;42.970;1.524;2024-01-30T01:34:06;21.67;;;15.40;;
53389;SDS011;39288;42.970;1.524;2024-01-30T01:35:07;29.33;;;17.27;;
53389;SDS011;39288;42.970;1.524;2024-01-30T01:36:07;39.07;;;20.13;;
53389;SDS011;39288;42.970;1.524;2024-01-30T01:37:08;33.93;;;20.17;;
53389;SDS011;39288;42.970;1.524;2024-01-30T01:38:08;34.43;;;19.77;;
53389;SDS011;39288;42.970;1.524;2024-01-30T01:39:08;28.27;;;16.07;;
53389;SDS011;39288;42.970;1.524;2024-01-30T01:40:09;28.30;;;16.17;;
53389;SDS011;39288;42.970;1.524;2024-01-30T01:41:10;28.60;;;17.10;;
53389;SDS011;39288;42.970;1.524;2024-01-30T01:42:10;28.47;;;15.97;;
53389;SDS011;39288;42.970;1.524;2024-01-30T01:43:11;18.70;;;12.90;;
53389;SDS011;39288;42.970;1.524;2024-01-30T01:44:11;25.37;;;14.00;;
53389;SDS011;39288;42.970;1.524;2024-01-30T01:45:12;22.10;;;12.90;;
53389;SDS011;39288;42.970;1.524;2024-01-30T01:46:12;16.37;;;11.10;;
53389;SDS011;39288;42.970;1.524;2024-01-30T01:47:12;13.97;;;10.00;;
53389;SDS011;39288;42.970;1.524;2024-01-30T01:48:13;18.83;;;12.13;;
53389;SDS011;39288;42.970;1.524;2024-01-30T01:49:13;20.97;;;12.60;;
53389;SDS011;39288;42.970;1.524;2024-01-30T01:50:15;22.23;;;13.40;;
53389;SDS011;39288;42.970;1.524;2024-01-30T01:51:19;16.63;;;11.45;;
53389;SDS011;39288;42.970;1.524;2024-01-30T01:52:20;27.75;;;12.73;;
53389;SDS011;39288;42.970;1.524;2024-01-30T01:53:21;19.73;;;13.03;;
53389;SDS011;39288;42.970;1.524;2024-01-30T01:54:21;26.03;;;14.90;;
53389;SDS011;39288;42.970;1.524;2024-01-30T01:55:23;22.13;;;14.57;;
53389;SDS011;39288;42.970;1.524;2024-01-30T01:56:26;28.17;;;14.48;;
53389;SDS011;39288;42.970;1.524;2024-01-30T01:58:28;25.05;;;15.13;;
53389;SDS011;39288;42.970;1.524;2024-01-30T01:59:29;22.23;;;14.07;;
53389;SDS011;39288;42.970;1.524;2024-01-30T02:00:30;21.90;;;14.47;;
53389;SDS011;39288;42.970;1.524;2024-01-30T02:01:31;28.23;;;15.03;;
53389;SDS011;39288;42.970;1.524;2024-01-30T02:02:34;26.00;;;14.68;;
53389;SDS011;39288;42.970;1.524;2024-01-30T02:03:36;36.28;;;14.23;;
53389;SDS011;39288;42.970;1.524;2024-01-30T02:04:36;23.17;;;14.57;;
53389;SDS011;39288;42.970;1.524;2024-01-30T02:05:37;26.57;;;14.40;;
53389;SDS011;39288;42.970;1.524;2024-01-30T02:06:38;21.35;;;13.82;;
53389;SDS011;39288;42.970;1.524;2024-01-30T02:07:38;23.27;;;13.53;;
53389;SDS011;39288;42.970;1.524;2024-01-30T02:08:39;38.37;;;17.43;;
53389;SDS011;39288;42.970;1.524;2024-01-30T02:09:40;23.07;;;14.77;;
53389;SDS011;39288;42.970;1.524;2024-01-30T02:10:40;25.00;;;15.67;;
53389;SDS011;39288;42.970;1.524;2024-01-30T02:11:41;31.80;;;16.50;;
53389;SDS011;39288;42.970;1.524;2024-01-30T02:12:42;23.37;;;15.27;;
53389;SDS011;39288;42.970;1.524;2024-01-30T02:13:42;24.00;;;15.27;;
53389;SDS011;39288;42.970;1.524;2024-01-30T02:14:48;32.60;;;17.67;;
53389;SDS011;39288;42.970;1.524;2024-01-30T02:15:50;26.67;;;15.77;;
53389;SDS011;39288;42.970;1.524;2024-01-30T02:17:51;71.55;;;16.98;;
53389;SDS011;39288;42.970;1.524;2024-01-30T02:18:51;64.07;;;18.20;;
53389;SDS011;39288;42.970;1.524;2024-01-30T02:19:52;64.27;;;18.03;;
53389;SDS011;39288;42.970;1.524;2024-01-30T02:20:53;75.93;;;16.73;;
53389;SDS011;39288;42.970;1.524;2024-01-30T02:21:56;39.08;;;16.42;;
53389;SDS011;39288;42.970;1.524;2024-01-30T02:22:56;20.50;;;15.23;;
53389;SDS011;39288;42.970;1.524;2024-01-30T02:23:58;76.55;;;19.60;;
53389;SDS011;39288;42.970;1.524;2024-01-30T02:25:00;23.40;;;15.77;;
53389;SDS011;39288;42.970;1.524;2024-01-30T02:26:00;29.70;;;17.43;;
53389;SDS011;39288;42.970;1.524;2024-01-30T02:27:00;41.47;;;20.63;;
53389;SDS011;39288;42.970;1.524;2024-01-30T02:28:01;25.60;;;19.00;;
53389;SDS011;39288;42.970;1.524;2024-01-30T02:29:01;21.10;;;16.03;;
53389;SDS011;39288;42.970;1.524;2024-01-30T02:30:02;23.80;;;16.77;;
53389;SDS011;39288;42.970;1.524;2024-01-30T02:31:03;26.00;;;17.70;;
53389;SDS011;39288;42.970;1.524;2024-01-30T02:32:03;25.90;;;15.67;;
53389;SDS011;39288;42.970;1.524;2024-01-30T02:33:04;23.80;;;17.47;;
53389;SDS011;39288;42.970;1.524;2024-01-30T02:34:04;22.07;;;16.47;;
53389;SDS011;39288;42.970;1.524;2024-01-30T02:35:05;24.13;;;17.03;;
53389;SDS011;39288;42.970;1.524;2024-01-30T02:36:05;23.87;;;16.70;;
53389;SDS011;39288;42.970;1.524;2024-01-30T02:37:06;17.63;;;14.60;;
53389;SDS011;39288;42.970;1.524;2024-01-30T02:38:06;21.40;;;14.77;;
53389;SDS011;39288;42.970;1.524;2024-01-30T02:39:07;23.07;;;15.73;;
53389;SDS011;39288;42.970;1.524;2024-01-30T02:40:08;21.30;;;15.93;;
53389;SDS011;39288;42.970;1.524;2024-01-30T02:41:08;20.80;;;13.70;;
53389;SDS011;39288;42.970;1.524;2024-01-30T02:42:08;28.23;;;17.27;;
53389;SDS011;39288;42.970;1.524;2024-01-30T02:43:09;23.40;;;15.37;;
53389;SDS011;39288;42.970;1.524;2024-01-30T02:44:09;22.10;;;15.30;;
53389;SDS011;39288;42.970;1.524;2024-01-30T02:45:10;27.20;;;15.87;;
53389;SDS011;39288;42.970;1.524;2024-01-30T02:46:11;23.83;;;15.68;;
53389;SDS011;39288;42.970;1.524;2024-01-30T02:47:11;28.13;;;16.43;;
53389;SDS011;39288;42.970;1.524;2024-01-30T02:48:11;32.10;;;19.93;;
53389;SDS011;39288;42.970;1.524;2024-01-30T02:49:12;34.93;;;18.33;;
53389;SDS011;39288;42.970;1.524;2024-01-30T02:50:12;67.07;;;23.67;;
53389;SDS011;39288;42.970;1.524;2024-01-30T02:51:14;72.50;;;23.45;;
53389;SDS011;39288;42.970;1.524;2024-01-30T02:52:14;90.37;;;23.33;;
53389;SDS011;39288;42.970;1.524;2024-01-30T02:53:15;125.83;;;25.87;;
53389;SDS011;39288;42.970;1.524;2024-01-30T02:54:15;34.63;;;17.43;;
53389;SDS011;39288;42.970;1.524;2024-01-30T02:55:15;27.87;;;18.83;;
53389;SDS011;39288;42.970;1.524;2024-01-30T02:56:18;33.25;;;20.60;;
53389;SDS011;39288;42.970;1.524;2024-01-30T02:57:18;43.47;;;20.93;;
53389;SDS011;39288;42.970;1.524;2024-01-30T02:58:18;29.50;;;18.30;;
53389;SDS011;39288;42.970;1.524;2024-01-30T02:59:19;28.20;;;16.73;;
53389;SDS011;39288;42.970;1.524;2024-01-30T03:00:19;26.80;;;16.63;;
53389;SDS011;39288;42.970;1.524;2024-01-30T03:01:20;31.77;;;17.83;;
53389;SDS011;39288;42.970;1.524;2024-01-30T03:02:20;22.63;;;15.13;;
53389;SDS011;39288;42.970;1.524;2024-01-30T03:03:21;19.40;;;13.03;;
53389;SDS011;39288;42.970;1.524;2024-01-30T03:04:21;24.13;;;14.80;;
53389;SDS011;39288;42.970;1.524;2024-01-30T03:05:21;18.73;;;13.37;;
53389;SDS011;39288;42.970;1.524;2024-01-30T03:06:22;21.27;;;14.97;;
53389;SDS011;39288;42.970;1.524;2024-01-30T03:07:23;28.17;;;16.73;;
53389;SDS011;39288;42.970;1.524;2024-01-30T03:08:23;22.97;;;15.63;;
53389;SDS011;39288;42.970;1.524;2024-01-30T03:09:23;24.23;;;14.73;;
53389;SDS011;39288;42.970;1.524;2024-01-30T03:10:24;26.20;;;14.27;;
53389;SDS011;39288;42.970;1.524;2024-01-30T03:11:24;24.03;;;14.17;;
53389;SDS011;39288;42.970;1.524;2024-01-30T03:12:24;16.40;;;11.83;;
53389;SDS011;39288;42.970;1.524;2024-01-30T03:13:25;14.80;;;12.07;;
53389;SDS011;39288;42.970;1.524;2024-01-30T03:14:25;20.83;;;12.03;;
53389;SDS011;39288;42.970;1.524;2024-01-30T03:15:26;21.57;;;12.87;;
53389;SDS011;39288;42.970;1.524;2024-01-30T03:16:26;21.40;;;13.67;;
53389;SDS011;39288;42.970;1.524;2024-01-30T03:17:27;27.50;;;14.07;;
53389;SDS011;39288;42.970;1.524;2024-01-30T03:18:27;18.87;;;12.10;;
53389;SDS011;39288;42.970;1.524;2024-01-30T03:19:28;14.10;;;10.47;;
53389;SDS011;39288;42.970;1.524;2024-01-30T03:20:28;16.47;;;11.47;;
53389;SDS011;39288;42.970;1.524;2024-01-30T03:21:29;20.10;;;11.57;;
53389;SDS011;39288;42.970;1.524;2024-01-30T03:22:29;17.37;;;11.23;;
53389;SDS011;39288;42.970;1.524;2024-01-30T03:23:30;13.47;;;10.53;;
53389;SDS011;39288;42.970;1.524;2024-01-30T03:24:32;30.48;;;12.65;;
53389;SDS011;39288;42.970;1.524;2024-01-30T03:25:32;17.70;;;13.03;;
53389;SDS011;39288;42.970;1.524;2024-01-30T03:26:33;23.27;;;13.13;;
53389;SDS011;39288;42.970;1.524;2024-01-30T03:27:33;23.03;;;13.97;;
53389;SDS011;39288;42.970;1.524;2024-01-30T03:28:33;23.57;;;14.50;;
53389;SDS011;39288;42.970;1.524;2024-01-30T03:29:34;23.03;;;12.53;;
53389;SDS011;39288;42.970;1.524;2024-01-30T03:30:34;19.77;;;12.33;;
53389;SDS011;39288;42.970;1.524;2024-01-30T03:31:35;25.93;;;13.30;;
53389;SDS011;39288;42.970;1.524;2024-01-30T03:32:35;31.83;;;14.23;;
53389;SDS011;39288;42.970;1.524;2024-01-30T03:33:36;19.77;;;11.50;;
53389;SDS011;39288;42.970;1.524;2024-01-30T03:34:36;19.83;;;11.30;;
53389;SDS011;39288;42.970;1.524;2024-01-30T03:35:37;16.20;;;10.00;;
53389;SDS011;39288;42.970;1.524;2024-01-30T03:36:37;23.00;;;12.13;;
53389;SDS011;39288;42.970;1.524;2024-01-30T03:37:38;37.73;;;14.50;;
53389;SDS011;39288;42.970;1.524;2024-01-30T03:38:38;41.97;;;16.73;;
53389;SDS011;39288;42.970;1.524;2024-01-30T03:39:38;22.67;;;13.67;;
53389;SDS011;39288;42.970;1.524;2024-01-30T03:40:39;21.53;;;12.80;;
53389;SDS011;39288;42.970;1.524;2024-01-30T03:41:41;52.97;;;23.97;;
53389;SDS011;39288;42.970;1.524;2024-01-30T03:42:42;48.33;;;16.08;;
53389;SDS011;39288;42.970;1.524;2024-01-30T03:43:43;48.27;;;16.83;;
53389;SDS011;39288;42.970;1.524;2024-01-30T03:44:43;249.20;;;28.37;;
53389;SDS011;39288;42.970;1.524;2024-01-30T03:45:43;205.37;;;26.20;;
53389;SDS011;39288;42.970;1.524;2024-01-30T03:46:44;154.13;;;21.17;;
53389;SDS011;39288;42.970;1.524;2024-01-30T03:47:44;52.33;;;15.90;;
53389;SDS011;39288;42.970;1.524;2024-01-30T03:48:45;27.47;;;14.23;;
53389;SDS011;39288;42.970;1.524;2024-01-30T03:49:46;26.80;;;14.50;;
53389;SDS011;39288;42.970;1.524;2024-01-30T03:50:46;45.23;;;15.77;;
53389;SDS011;39288;42.970;1.524;2024-01-30T03:51:47;174.33;;;24.53;;
53389;SDS011;39288;42.970;1.524;2024-01-30T03:52:47;131.80;;;21.70;;
53389;SDS011;39288;42.970;1.524;2024-01-30T03:53:48;69.50;;;17.97;;
53389;SDS011;39288;42.970;1.524;2024-01-30T03:54:48;77.67;;;18.90;;
53389;SDS011;39288;42.970;1.524;2024-01-30T03:55:48;78.03;;;16.60;;
53389;SDS011;39288;42.970;1.524;2024-01-30T03:56:49;86.57;;;18.23;;
53389;SDS011;39288;42.970;1.524;2024-01-30T03:57:49;59.30;;;19.03;;
53389;SDS011;39288;42.970;1.524;2024-01-30T03:58:50;21.57;;;13.00;;
53389;SDS011;39288;42.970;1.524;2024-01-30T03:59:50;25.00;;;12.97;;
53389;SDS011;39288;42.970;1.524;2024-01-30T04:00:50;21.40;;;12.27;;
53389;SDS011;39288;42.970;1.524;2024-01-30T04:01:51;19.73;;;11.77;;
53389;SDS011;39288;42.970;1.524;2024-01-30T04:02:52;16.83;;;11.23;;
53389;SDS011;39288;42.970;1.524;2024-01-30T04:03:52;18.83;;;13.07;;
53389;SDS011;39288;42.970;1.524;2024-01-30T04:04:52;17.43;;;12.70;;
53389;SDS011;39288;42.970;1.524;2024-01-30T04:05:53;20.03;;;12.83;;
53389;SDS011;39288;42.970;1.524;2024-01-30T04:06:53;24.40;;;13.20;;
53389;SDS011;39288;42.970;1.524;2024-01-30T04:07:54;20.80;;;12.27;;
53389;SDS011;39288;42.970;1.524;2024-01-30T04:08:54;20.03;;;12.47;;
53389;SDS011;39288;42.970;1.524;2024-01-30T04:09:55;54.20;;;16.13;;
53389;SDS011;39288;42.970;1.524;2024-01-30T04:10:55;97.07;;;17.10;;
53389;SDS011;39288;42.970;1.524;2024-01-30T04:11:55;26.23;;;15.97;;
53389;SDS011;39288;42.970;1.524;2024-01-30T04:12:56;33.33;;;16.97;;
53389;SDS011;39288;42.970;1.524;2024-01-30T04:13:56;52.63;;;15.40;;
53389;SDS011;39288;42.970;1.524;2024-01-30T04:14:57;348.50;;;39.27;;
53389;SDS011;39288;42.970;1.524;2024-01-30T04:15:58;57.13;;;20.03;;
53389;SDS011;39288;42.970;1.524;2024-01-30T04:16:59;37.97;;;15.50;;
53389;SDS011;39288;42.970;1.524;2024-01-30T04:18:00;55.10;;;15.80;;
53389;SDS011;39288;42.970;1.524;2024-01-30T04:19:00;27.10;;;13.07;;
53389;SDS011;39288;42.970;1.524;2024-01-30T04:20:00;16.53;;;11.93;;
53389;SDS011;39288;42.970;1.524;2024-01-30T04:21:01;21.43;;;12.33;;
53389;SDS011;39288;42.970;1.524;2024-01-30T04:22:01;20.00;;;12.20;;
53389;SDS011;39288;42.970;1.524;2024-01-30T04:23:02;133.03;;;17.07;;
53389;SDS011;39288;42.970;1.524;2024-01-30T04:24:02;119.33;;;19.60;;
53389;SDS011;39288;42.970;1.524;2024-01-30T04:25:03;126.43;;;17.37;;
53389;SDS011;39288;42.970;1.524;2024-01-30T04:26:04;29.43;;;13.63;;
53389;SDS011;39288;42.970;1.524;2024-01-30T04:27:04;17.03;;;11.90;;
53389;SDS011;39288;42.970;1.524;2024-01-30T04:28:04;18.53;;;12.03;;
53389;SDS011;39288;42.970;1.524;2024-01-30T04:29:05;17.33;;;11.07;;
53389;SDS011;39288;42.970;1.524;2024-01-30T04:30:05;16.00;;;11.00;;
53389;SDS011;39288;42.970;1.524;2024-01-30T04:31:06;19.80;;;10.82;;
53389;SDS011;39288;42.970;1.524;2024-01-30T04:32:07;15.57;;;10.60;;
53389;SDS011;39288;42.970;1.524;2024-01-30T04:33:07;16.23;;;10.20;;
53389;SDS011;39288;42.970;1.524;2024-01-30T04:34:07;18.40;;;11.33;;
53389;SDS011;39288;42.970;1.524;2024-01-30T04:35:08;17.13;;;11.60;;
53389;SDS011;39288;42.970;1.524;2024-01-30T04:36:08;14.77;;;10.57;;
53389;SDS011;39288;42.970;1.524;2024-01-30T04:37:12;17.00;;;9.77;;
53389;SDS011;39288;42.970;1.524;2024-01-30T04:38:12;19.53;;;11.20;;
53389;SDS011;39288;42.970;1.524;2024-01-30T04:39:14;15.13;;;11.15;;
53389;SDS011;39288;42.970;1.524;2024-01-30T04:40:14;25.60;;;12.13;;
53389;SDS011;39288;42.970;1.524;2024-01-30T04:41:15;13.87;;;11.23;;
53389;SDS011;39288;42.970;1.524;2024-01-30T04:42:15;13.20;;;11.10;;
53389;SDS011;39288;42.970;1.524;2024-01-30T04:43:16;20.90;;;13.60;;
53389;SDS011;39288;42.970;1.524;2024-01-30T04:44:16;24.87;;;12.87;;
53389;SDS011;39288;42.970;1.524;2024-01-30T04:45:17;19.80;;;12.53;;
53389;SDS011;39288;42.970;1.524;2024-01-30T04:46:17;20.03;;;11.87;;
53389;SDS011;39288;42.970;1.524;2024-01-30T04:47:17;18.53;;;11.77;;
53389;SDS011;39288;42.970;1.524;2024-01-30T04:48:18;19.57;;;11.93;;
53389;SDS011;39288;42.970;1.524;2024-01-30T04:49:18;18.03;;;11.73;;
53389;SDS011;39288;42.970;1.524;2024-01-30T04:50:18;18.20;;;10.40;;
53389;SDS011;39288;42.970;1.524;2024-01-30T04:51:19;12.23;;;9.53;;
53389;SDS011;39288;42.970;1.524;2024-01-30T04:52:19;14.17;;;10.03;;
53389;SDS011;39288;42.970;1.524;2024-01-30T04:53:20;14.00;;;10.97;;
53389;SDS011;39288;42.970;1.524;2024-01-30T04:54:20;13.83;;;9.57;;
53389;SDS011;39288;42.970;1.524;2024-01-30T04:55:21;14.97;;;10.47;;
53389;SDS011;39288;42.970;1.524;2024-01-30T04:56:21;16.77;;;10.43;;
53389;SDS011;39288;42.970;1.524;2024-01-30T04:57:21;20.37;;;11.17;;
53389;SDS011;39288;42.970;1.524;2024-01-30T04:58:22;15.40;;;10.23;;
53389;SDS011;39288;42.970;1.524;2024-01-30T04:59:22;17.53;;;11.37;;
53389;SDS011;39288;42.970;1.524;2024-01-30T05:00:23;15.73;;;11.07;;
53389;SDS011;39288;42.970;1.524;2024-01-30T05:01:23;17.63;;;10.90;;
53389;SDS011;39288;42.970;1.524;2024-01-30T05:02:23;20.37;;;10.30;;
53389;SDS011;39288;42.970;1.524;2024-01-30T05:03:24;18.47;;;10.53;;
53389;SDS011;39288;42.970;1.524;2024-01-30T05:04:24;14.17;;;10.00;;
53389;SDS011;39288;42.970;1.524;2024-01-30T05:05:24;17.67;;;10.70;;
53389;SDS011;39288;42.970;1.524;2024-01-30T05:06:25;11.80;;;10.07;;
53389;SDS011;39288;42.970;1.524;2024-01-30T05:07:26;16.10;;;9.52;;
53389;SDS011;39288;42.970;1.524;2024-01-30T05:08:27;17.07;;;10.47;;
53389;SDS011;39288;42.970;1.524;2024-01-30T05:09:27;16.53;;;10.17;;
53389;SDS011;39288;42.970;1.524;2024-01-30T05:10:28;13.63;;;9.32;;
53389;SDS011;39288;42.970;1.524;2024-01-30T05:11:29;20.77;;;10.30;;
53389;SDS011;39288;42.970;1.524;2024-01-30T05:12:30;17.67;;;9.73;;
53389;SDS011;39288;42.970;1.524;2024-01-30T05:13:31;15.33;;;9.23;;
53389;SDS011;39288;42.970;1.524;2024-01-30T05:14:31;17.37;;;10.07;;
53389;SDS011;39288;42.970;1.524;2024-01-30T05:15:32;15.67;;;9.83;;
53389;SDS011;39288;42.970;1.524;2024-01-30T05:16:32;18.73;;;10.83;;
53389;SDS011;39288;42.970;1.524;2024-01-30T05:17:33;14.30;;;10.40;;
53389;SDS011;39288;42.970;1.524;2024-01-30T05:18:33;15.07;;;10.23;;
53389;SDS011;39288;42.970;1.524;2024-01-30T05:19:33;17.97;;;10.80;;
53389;SDS011;39288;42.970;1.524;2024-01-30T05:20:34;18.17;;;11.80;;
53389;SDS011;39288;42.970;1.524;2024-01-30T05:21:34;17.30;;;11.07;;
53389;SDS011;39288;42.970;1.524;2024-01-30T05:22:35;19.43;;;11.60;;
53389;SDS011;39288;42.970;1.524;2024-01-30T05:23:35;19.70;;;11.30;;
53389;SDS011;39288;42.970;1.524;2024-01-30T05:24:36;12.23;;;9.67;;
53389;SDS011;39288;42.970;1.524;2024-01-30T05:25:37;17.55;;;10.00;;
53389;SDS011;39288;42.970;1.524;2024-01-30T05:26:37;13.63;;;9.13;;
53389;SDS011;39288;42.970;1.524;2024-01-30T05:27:38;13.37;;;9.07;;
53389;SDS011;39288;42.970;1.524;2024-01-30T05:28:39;13.00;;;8.83;;
53389;SDS011;39288;42.970;1.524;2024-01-30T05:29:39;11.63;;;8.23;;
53389;SDS011;39288;42.970;1.524;2024-01-30T05:30:41;15.30;;;9.50;;
53389;SDS011;39288;42.970;1.524;2024-01-30T05:31:41;13.53;;;8.67;;
53389;SDS011;39288;42.970;1.524;2024-01-30T05:32:41;15.80;;;10.00;;
53389;SDS011;39288;42.970;1.524;2024-01-30T05:33:43;12.80;;;8.52;;
53389;SDS011;39288;42.970;1.524;2024-01-30T05:34:43;17.13;;;10.00;;
53389;SDS011;39288;42.970;1.524;2024-01-30T05:35:44;14.33;;;10.13;;
53389;SDS011;39288;42.970;1.524;2024-01-30T05:36:44;20.13;;;9.97;;
53389;SDS011;39288;42.970;1.524;2024-01-30T05:37:45;10.67;;;8.90;;
53389;SDS011;39288;42.970;1.524;2024-01-30T05:38:45;13.70;;;8.67;;
53389;SDS011;39288;42.970;1.524;2024-01-30T05:39:45;13.87;;;9.43;;
53389;SDS011;39288;42.970;1.524;2024-01-30T05:40:46;14.73;;;10.37;;
53389;SDS011;39288;42.970;1.524;2024-01-30T05:41:46;14.17;;;9.03;;
53389;SDS011;39288;42.970;1.524;2024-01-30T05:42:47;17.30;;;11.13;;
53389;SDS011;39288;42.970;1.524;2024-01-30T05:43:47;15.43;;;9.60;;
53389;SDS011;39288;42.970;1.524;2024-01-30T05:44:48;20.93;;;10.07;;
53389;SDS011;39288;42.970;1.524;2024-01-30T05:45:49;24.63;;;11.50;;
53389;SDS011;39288;42.970;1.524;2024-01-30T05:46:49;15.80;;;11.13;;
53389;SDS011;39288;42.970;1.524;2024-01-30T05:47:50;17.37;;;10.93;;
53389;SDS011;39288;42.970;1.524;2024-01-30T05:48:50;16.43;;;11.63;;
53389;SDS011;39288;42.970;1.524;2024-01-30T05:49:50;18.93;;;11.70;;
53389;SDS011;39288;42.970;1.524;2024-01-30T05:50:51;18.13;;;11.67;;
53389;SDS011;39288;42.970;1.524;2024-01-30T05:51:51;20.90;;;12.03;;
53389;SDS011;39288;42.970;1.524;2024-01-30T05:52:51;19.70;;;12.57;;
53389;SDS011;39288;42.970;1.524;2024-01-30T05:53:52;16.60;;;12.10;;
53389;SDS011;39288;42.970;1.524;2024-01-30T05:54:53;18.77;;;11.70;;
53389;SDS011;39288;42.970;1.524;2024-01-30T05:55:53;17.30;;;12.30;;
53389;SDS011;39288;42.970;1.524;2024-01-30T05:56:53;20.30;;;12.50;;
53389;SDS011;39288;42.970;1.524;2024-01-30T05:57:54;18.30;;;13.07;;
53389;SDS011;39288;42.970;1.524;2024-01-30T05:58:54;18.17;;;11.67;;
53389;SDS011;39288;42.970;1.524;2024-01-30T05:59:55;24.70;;;13.80;;
53389;SDS011;39288;42.970;1.524;2024-01-30T06:00:55;26.63;;;12.83;;